sensor_id;sensor_type;location;lat;lon;timestamp;pressure;altitude;pressure_sealevel;temperature;humidity
24390;BME280;12510;56.468;-3.004;2022-10-30T00:01:03;99761.25;;;16.31;100.00
24390;BME280;12510;56.468;-3.004;2022-10-30T00:03:30;99770.63;;;16.27;100.00
24390;BME280;12510;56.468;-3.004;2022-10-30T00:05:56;99760.34;;;16.17;100.00
24390;BME280;12510;56.468;-3.004;2022-10-30T00:08:23;99757.59;;;16.39;100.00
24390;BME280;12510;56.468;-3.004;2022-10-30T00:10:52;99754.91;;;16.32;100.00
24390;BME280;12510;56.468;-3.004;2022-10-30T00:13:20;99766.09;;;16.21;100.00
24390;BME280;12510;56.468;-3.004;2022-10-30T00:15:51;99758.97;;;16.28;100.00
24390;BME280;12510;56.468;-3.004;2022-10-30T00:18:19;99760.81;;;16.28;100.00
24390;BME280;12510;56.468;-3.004;2022-10-30T00:20:46;99752.84;;;16.28;100.00
24390;BME280;12510;56.468;-3.004;2022-10-30T00:23:12;99754.69;;;16.27;100.00
24390;BME280;12510;56.468;-3.004;2022-10-30T00:25:39;99758.66;;;16.09;100.00
24390;BME280;12510;56.468;-3.004;2022-10-30T00:28:06;99747.94;;;16.31;100.00
24390;BME280;12510;56.468;-3.004;2022-10-30T00:30:33;99754.91;;;16.32;100.00
24390;BME280;12510;56.468;-3.004;2022-10-30T00:33:00;99753.06;;;16.33;100.00
24390;BME280;12510;56.468;-3.004;2022-10-30T00:35:26;99752.22;;;16.25;100.00
24390;BME280;12510;56.468;-3.004;2022-10-30T00:37:53;99758.41;;;16.39;100.00
24390;BME280;12510;56.468;-3.004;2022-10-30T00:40:20;99757.22;;;16.42;100.00
24390;BME280;12510;56.468;-3.004;2022-10-30T00:42:46;99758.38;;;16.33;100.00
24390;BME280;12510;56.468;-3.004;2022-10-30T00:45:15;99759.50;;;16.10;100.00
24390;BME280;12510;56.468;-3.004;2022-10-30T00:47:52;99762.31;;;16.37;100.00
24390;BME280;12510;56.468;-3.004;2022-10-30T00:53:02;99760.00;;;16.27;100.00
24390;BME280;12510;56.468;-3.004;2022-10-30T00:55:37;99767.72;;;16.22;100.00
24390;BME280;12510;56.468;-3.004;2022-10-30T00:58:08;99761.59;;;16.21;100.00
24390;BME280;12510;56.468;-3.004;2022-10-30T01:00:38;99766.94;;;16.28;100.00
24390;BME280;12510;56.468;-3.004;2022-10-30T01:03:05;99767.16;;;16.27;100.00
24390;BME280;12510;56.468;-3.004;2022-10-30T01:05:32;99770.38;;;16.22;100.00
24390;BME280;12510;56.468;-3.004;2022-10-30T01:07:59;99767.31;;;16.18;100.00
24390;BME280;12510;56.468;-3.004;2022-10-30T01:10:25;99775.06;;;16.20;100.00
24390;BME280;12510;56.468;-3.004;2022-10-30T01:12:52;99775.47;;;16.17;100.00
24390;BME280;12510;56.468;-3.004;2022-10-30T01:15:27;99770.72;;;16.12;100.00
24390;BME280;12510;56.468;-3.004;2022-10-30T01:18:16;99762.25;;;16.02;100.00
24390;BME280;12510;56.468;-3.004;2022-10-30T01:26:45;99756.59;;;15.62;100.00
24390;BME280;12510;56.468;-3.004;2022-10-30T01:29:27;99762.63;;;15.49;100.00
24390;BME280;12510;56.468;-3.004;2022-10-30T01:35:11;99762.38;;;15.22;100.00
24390;BME280;12510;56.468;-3.004;2022-10-30T01:37:56;99758.69;;;15.23;100.00
24390;BME280;12510;56.468;-3.004;2022-10-30T01:40:27;99761.19;;;15.09;100.00
24390;BME280;12510;56.468;-3.004;2022-10-30T01:42:56;99759.13;;;15.05;100.00
24390;BME280;12510;56.468;-3.004;2022-10-30T01:53:54;99758.78;;;14.93;100.00
24390;BME280;12510;56.468;-3.004;2022-10-30T01:59:22;99757.72;;;14.72;100.00
24390;BME280;12510;56.468;-3.004;2022-10-30T02:01:51;99770.06;;;14.65;100.00
24390;BME280;12510;56.468;-3.004;2022-10-30T02:04:18;99772.06;;;14.63;100.00
24390;BME280;12510;56.468;-3.004;2022-10-30T02:06:45;99763.00;;;14.57;100.00
24390;BME280;12510;56.468;-3.004;2022-10-30T02:09:14;99766.38;;;14.51;100.00
24390;BME280;12510;56.468;-3.004;2022-10-30T02:11:46;99773.69;;;14.49;100.00
24390;BME280;12510;56.468;-3.004;2022-10-30T02:14:21;99789.66;;;14.56;100.00
24390;BME280;12510;56.468;-3.004;2022-10-30T02:16:51;99777.78;;;14.52;100.00
24390;BME280;12510;56.468;-3.004;2022-10-30T02:19:19;99785.13;;;14.50;100.00
24390;BME280;12510;56.468;-3.004;2022-10-30T02:21:45;99784.75;;;14.38;100.00
24390;BME280;12510;56.468;-3.004;2022-10-30T02:24:12;99779.72;;;14.28;100.00
24390;BME280;12510;56.468;-3.004;2022-10-30T02:26:39;99772.78;;;14.27;100.00
24390;BME280;12510;56.468;-3.004;2022-10-30T02:29:05;99764.66;;;14.29;100.00
24390;BME280;12510;56.468;-3.004;2022-10-30T02:31:31;99765.63;;;14.28;100.00
24390;BME280;12510;56.468;-3.004;2022-10-30T02:33:58;99765.81;;;14.26;100.00
24390;BME280;12510;56.468;-3.004;2022-10-30T02:36:24;99755.78;;;14.21;100.00
24390;BME280;12510;56.468;-3.004;2022-10-30T02:38:52;99763.09;;;14.19;100.00
24390;BME280;12510;56.468;-3.004;2022-10-30T02:41:21;99762.97;;;14.13;100.00
24390;BME280;12510;56.468;-3.004;2022-10-30T02:43:49;99762.69;;;14.07;100.00
24390;BME280;12510;56.468;-3.004;2022-10-30T02:46:16;99764.91;;;14.04;100.00
24390;BME280;12510;56.468;-3.004;2022-10-30T02:48:43;99773.84;;;14.03;100.00
24390;BME280;12510;56.468;-3.004;2022-10-30T02:51:09;99765.50;;;13.91;100.00
24390;BME280;12510;56.468;-3.004;2022-10-30T02:53:38;99762.97;;;13.98;100.00
24390;BME280;12510;56.468;-3.004;2022-10-30T02:56:06;99761.31;;;13.97;100.00
24390;BME280;12510;56.468;-3.004;2022-10-30T02:58:33;99758.84;;;13.95;100.00
24390;BME280;12510;56.468;-3.004;2022-10-30T03:01:10;99762.31;;;13.96;100.00
24390;BME280;12510;56.468;-3.004;2022-10-30T03:03:37;99771.78;;;13.90;100.00
24390;BME280;12510;56.468;-3.004;2022-10-30T03:06:06;99756.81;;;13.82;100.00
24390;BME280;12510;56.468;-3.004;2022-10-30T03:08:34;99762.66;;;13.78;100.00
24390;BME280;12510;56.468;-3.004;2022-10-30T03:11:08;99757.34;;;13.78;100.00
24390;BME280;12510;56.468;-3.004;2022-10-30T03:13:36;99755.38;;;13.80;100.00
24390;BME280;12510;56.468;-3.004;2022-10-30T03:16:08;99758.16;;;13.78;100.00
24390;BME280;12510;56.468;-3.004;2022-10-30T03:18:35;99755.00;;;13.83;100.00
24390;BME280;12510;56.468;-3.004;2022-10-30T03:21:10;99757.75;;;13.89;100.00
24390;BME280;12510;56.468;-3.004;2022-10-30T03:23:36;99759.31;;;13.99;100.00
24390;BME280;12510;56.468;-3.004;2022-10-30T03:26:03;99748.94;;;14.12;100.00
24390;BME280;12510;56.468;-3.004;2022-10-30T03:28:35;99753.88;;;14.30;100.00
24390;BME280;12510;56.468;-3.004;2022-10-30T03:31:08;99755.78;;;14.51;100.00
24390;BME280;12510;56.468;-3.004;2022-10-30T03:33:36;99754.44;;;14.70;100.00
24390;BME280;12510;56.468;-3.004;2022-10-30T03:36:05;99761.53;;;14.85;100.00
24390;BME280;12510;56.468;-3.004;2022-10-30T03:38:32;99753.94;;;14.97;100.00
24390;BME280;12510;56.468;-3.004;2022-10-30T03:40:59;99745.06;;;15.04;100.00
24390;BME280;12510;56.468;-3.004;2022-10-30T03:43:25;99747.59;;;15.13;100.00
24390;BME280;12510;56.468;-3.004;2022-10-30T03:45:55;99757.06;;;15.22;100.00
24390;BME280;12510;56.468;-3.004;2022-10-30T03:48:24;99749.38;;;15.27;100.00
24390;BME280;12510;56.468;-3.004;2022-10-30T03:50:52;99739.00;;;15.32;100.00
24390;BME280;12510;56.468;-3.004;2022-10-30T03:53:19;99737.44;;;15.38;100.00
24390;BME280;12510;56.468;-3.004;2022-10-30T03:55:46;99742.34;;;15.41;100.00
24390;BME280;12510;56.468;-3.004;2022-10-30T03:58:12;99734.19;;;15.42;100.00
24390;BME280;12510;56.468;-3.004;2022-10-30T04:00:39;99727.25;;;15.41;100.00
24390;BME280;12510;56.468;-3.004;2022-10-30T04:03:07;99723.03;;;15.47;100.00
24390;BME280;12510;56.468;-3.004;2022-10-30T04:05:36;99716.13;;;15.53;100.00
24390;BME280;12510;56.468;-3.004;2022-10-30T04:08:05;99718.00;;;15.59;100.00
24390;BME280;12510;56.468;-3.004;2022-10-30T04:10:36;99724.41;;;15.65;100.00
24390;BME280;12510;56.468;-3.004;2022-10-30T04:13:09;99719.97;;;15.72;100.00
24390;BME280;12510;56.468;-3.004;2022-10-30T04:15:40;99718.84;;;15.81;100.00
24390;BME280;12510;56.468;-3.004;2022-10-30T04:18:09;99728.25;;;15.84;100.00
24390;BME280;12510;56.468;-3.004;2022-10-30T04:20:36;99730.56;;;15.94;100.00
24390;BME280;12510;56.468;-3.004;2022-10-30T04:23:05;99730.91;;;15.84;100.00
24390;BME280;12510;56.468;-3.004;2022-10-30T04:25:33;99726.78;;;15.81;100.00
24390;BME280;12510;56.468;-3.004;2022-10-30T04:28:00;99725.72;;;15.75;100.00
24390;BME280;12510;56.468;-3.004;2022-10-30T04:30:27;99723.53;;;15.86;100.00
24390;BME280;12510;56.468;-3.004;2022-10-30T04:32:55;99725.00;;;15.88;100.00
24390;BME280;12510;56.468;-3.004;2022-10-30T04:35:24;99719.53;;;15.90;100.00
24390;BME280;12510;56.468;-3.004;2022-10-30T04:37:56;99718.47;;;15.91;100.00
24390;BME280;12510;56.468;-3.004;2022-10-30T04:40:26;99708.50;;;15.93;100.00
24390;BME280;12510;56.468;-3.004;2022-10-30T04:42:57;99709.94;;;15.96;100.00
24390;BME280;12510;56.468;-3.004;2022-10-30T04:45:24;99705.72;;;16.08;100.00
24390;BME280;12510;56.468;-3.004;2022-10-30T04:47:51;99703.53;;;16.12;100.00
24390;BME280;12510;56.468;-3.004;2022-10-30T04:50:18;99700.47;;;16.15;100.00
24390;BME280;12510;56.468;-3.004;2022-10-30T04:52:44;99702.13;;;16.16;100.00
24390;BME280;12510;56.468;-3.004;2022-10-30T04:55:10;99700.09;;;16.24;100.00
24390;BME280;12510;56.468;-3.004;2022-10-30T04:57:37;99697.44;;;16.24;100.00
24390;BME280;12510;56.468;-3.004;2022-10-30T05:00:05;99698.31;;;16.32;100.00
24390;BME280;12510;56.468;-3.004;2022-10-30T05:02:35;99701.56;;;16.34;100.00
24390;BME280;12510;56.468;-3.004;2022-10-30T05:05:03;99698.31;;;16.32;100.00
24390;BME280;12510;56.468;-3.004;2022-10-30T05:07:29;99705.69;;;16.36;100.00
24390;BME280;12510;56.468;-3.004;2022-10-30T05:09:56;99700.16;;;16.38;100.00
24390;BME280;12510;56.468;-3.004;2022-10-30T05:12:24;99701.81;;;16.39;100.00
24390;BME280;12510;56.468;-3.004;2022-10-30T05:14:53;99696.09;;;16.42;100.00
24390;BME280;12510;56.468;-3.004;2022-10-30T05:17:20;99699.78;;;16.41;100.00
24390;BME280;12510;56.468;-3.004;2022-10-30T05:19:48;99690.78;;;16.42;100.00
24390;BME280;12510;56.468;-3.004;2022-10-30T05:22:14;99694.06;;;16.44;100.00
24390;BME280;12510;56.468;-3.004;2022-10-30T05:24:40;99688.97;;;16.42;100.00
24390;BME280;12510;56.468;-3.004;2022-10-30T05:27:07;99693.63;;;16.40;100.00
24390;BME280;12510;56.468;-3.004;2022-10-30T05:29:34;99694.28;;;16.42;100.00
24390;BME280;12510;56.468;-3.004;2022-10-30T05:32:01;99695.69;;;16.38;100.00
24390;BME280;12510;56.468;-3.004;2022-10-30T05:34:45;99696.88;;;16.29;100.00
24390;BME280;12510;56.468;-3.004;2022-10-30T05:37:14;99692.97;;;16.25;100.00
24390;BME280;12510;56.468;-3.004;2022-10-30T05:39:42;99694.19;;;16.22;100.00
24390;BME280;12510;56.468;-3.004;2022-10-30T05:42:18;99687.59;;;16.12;100.00
24390;BME280;12510;56.468;-3.004;2022-10-30T05:44:45;99687.06;;;15.95;100.00
24390;BME280;12510;56.468;-3.004;2022-10-30T05:47:13;99686.00;;;15.89;100.00
24390;BME280;12510;56.468;-3.004;2022-10-30T05:49:44;99687.78;;;15.82;100.00
24390;BME280;12510;56.468;-3.004;2022-10-30T05:52:15;99685.69;;;15.77;100.00
24390;BME280;12510;56.468;-3.004;2022-10-30T05:54:42;99686.09;;;15.74;100.00
24390;BME280;12510;56.468;-3.004;2022-10-30T05:57:17;99685.63;;;15.92;100.00
24390;BME280;12510;56.468;-3.004;2022-10-30T05:59:44;99680.78;;;16.02;100.00
24390;BME280;12510;56.468;-3.004;2022-10-30T06:02:10;99669.53;;;16.00;100.00
24390;BME280;12510;56.468;-3.004;2022-10-30T06:04:37;99669.19;;;16.10;100.00
24390;BME280;12510;56.468;-3.004;2022-10-30T06:07:09;99675.06;;;16.05;100.00
24390;BME280;12510;56.468;-3.004;2022-10-30T06:09:35;99674.25;;;16.05;100.00
24390;BME280;12510;56.468;-3.004;2022-10-30T06:12:05;99678.13;;;16.02;100.00
24390;BME280;12510;56.468;-3.004;2022-10-30T06:14:48;99675.28;;;16.04;100.00
24390;BME280;12510;56.468;-3.004;2022-10-30T06:17:14;99668.50;;;16.01;100.00
24390;BME280;12510;56.468;-3.004;2022-10-30T06:20:10;99671.50;;;15.85;100.00
24390;BME280;12510;56.468;-3.004;2022-10-30T06:23:01;99671.50;;;15.63;100.00
24390;BME280;12510;56.468;-3.004;2022-10-30T06:25:40;99681.19;;;15.49;100.00
24390;BME280;12510;56.468;-3.004;2022-10-30T06:28:26;99675.72;;;15.29;100.00
24390;BME280;12510;56.468;-3.004;2022-10-30T06:30:53;99675.59;;;15.16;100.00
24390;BME280;12510;56.468;-3.004;2022-10-30T06:33:20;99677.50;;;15.00;100.00
24390;BME280;12510;56.468;-3.004;2022-10-30T06:35:49;99679.78;;;15.03;100.00
24390;BME280;12510;56.468;-3.004;2022-10-30T06:38:17;99681.66;;;15.09;100.00
24390;BME280;12510;56.468;-3.004;2022-10-30T06:40:47;99684.81;;;15.20;100.00
24390;BME280;12510;56.468;-3.004;2022-10-30T06:43:23;99676.53;;;15.30;100.00
24390;BME280;12510;56.468;-3.004;2022-10-30T06:46:04;99680.53;;;15.40;100.00
24390;BME280;12510;56.468;-3.004;2022-10-30T06:48:32;99689.91;;;15.43;100.00
24390;BME280;12510;56.468;-3.004;2022-10-30T06:50:59;99687.25;;;15.43;100.00
24390;BME280;12510;56.468;-3.004;2022-10-30T06:53:30;99690.00;;;15.56;100.00
24390;BME280;12510;56.468;-3.004;2022-10-30T06:56:16;99689.47;;;15.61;100.00
24390;BME280;12510;56.468;-3.004;2022-10-30T06:58:56;99697.75;;;15.80;100.00
24390;BME280;12510;56.468;-3.004;2022-10-30T07:01:45;99687.81;;;15.60;100.00
24390;BME280;12510;56.468;-3.004;2022-10-30T07:04:15;99682.34;;;15.68;100.00
24390;BME280;12510;56.468;-3.004;2022-10-30T07:06:43;99684.91;;;15.55;100.00
24390;BME280;12510;56.468;-3.004;2022-10-30T07:09:09;99688.16;;;15.50;100.00
24390;BME280;12510;56.468;-3.004;2022-10-30T07:11:36;99684.13;;;15.33;100.00
24390;BME280;12510;56.468;-3.004;2022-10-30T07:14:27;99690.97;;;15.20;100.00
24390;BME280;12510;56.468;-3.004;2022-10-30T07:17:10;99687.41;;;15.13;100.00
24390;BME280;12510;56.468;-3.004;2022-10-30T07:19:38;99701.78;;;15.04;100.00
24390;BME280;12510;56.468;-3.004;2022-10-30T07:22:05;99706.66;;;15.00;100.00
24390;BME280;12510;56.468;-3.004;2022-10-30T07:24:33;99709.19;;;15.08;100.00
24390;BME280;12510;56.468;-3.004;2022-10-30T07:27:22;99697.06;;;15.21;100.00
24390;BME280;12510;56.468;-3.004;2022-10-30T07:30:15;99690.38;;;15.25;100.00
24390;BME280;12510;56.468;-3.004;2022-10-30T07:33:03;99695.03;;;15.23;100.00
24390;BME280;12510;56.468;-3.004;2022-10-30T07:35:52;99698.97;;;15.27;100.00
24390;BME280;12510;56.468;-3.004;2022-10-30T07:38:47;99697.38;;;15.54;100.00
24390;BME280;12510;56.468;-3.004;2022-10-30T07:41:39;99704.06;;;15.79;100.00
24390;BME280;12510;56.468;-3.004;2022-10-30T07:44:24;99704.59;;;15.89;100.00
24390;BME280;12510;56.468;-3.004;2022-10-30T07:47:09;99694.22;;;15.94;100.00
24390;BME280;12510;56.468;-3.004;2022-10-30T07:50:05;99696.53;;;16.04;100.00
24390;BME280;12510;56.468;-3.004;2022-10-30T07:52:33;99701.47;;;16.14;100.00
24390;BME280;12510;56.468;-3.004;2022-10-30T07:55:00;99698.25;;;16.18;100.00
24390;BME280;12510;56.468;-3.004;2022-10-30T07:57:44;99696.75;;;16.09;100.00
24390;BME280;12510;56.468;-3.004;2022-10-30T08:00:43;99693.34;;;16.22;100.00
24390;BME280;12510;56.468;-3.004;2022-10-30T08:03:20;99695.97;;;16.15;100.00
24390;BME280;12510;56.468;-3.004;2022-10-30T08:05:52;99694.09;;;16.09;100.00
24390;BME280;12510;56.468;-3.004;2022-10-30T08:08:29;99685.69;;;16.05;100.00
24390;BME280;12510;56.468;-3.004;2022-10-30T08:11:17;99687.94;;;16.08;100.00
24390;BME280;12510;56.468;-3.004;2022-10-30T08:13:44;99686.88;;;15.96;100.00
24390;BME280;12510;56.468;-3.004;2022-10-30T08:16:10;99687.81;;;16.17;100.00
24390;BME280;12510;56.468;-3.004;2022-10-30T08:18:38;99690.53;;;16.30;100.00
24390;BME280;12510;56.468;-3.004;2022-10-30T08:21:07;99687.25;;;16.28;100.00
24390;BME280;12510;56.468;-3.004;2022-10-30T08:23:34;99687.66;;;16.25;100.00
24390;BME280;12510;56.468;-3.004;2022-10-30T08:26:07;99672.38;;;16.40;100.00
24390;BME280;12510;56.468;-3.004;2022-10-30T08:28:35;99672.22;;;16.55;100.00
24390;BME280;12510;56.468;-3.004;2022-10-30T08:31:05;99671.88;;;16.65;100.00
24390;BME280;12510;56.468;-3.004;2022-10-30T08:33:50;99672.88;;;16.64;100.00
24390;BME280;12510;56.468;-3.004;2022-10-30T08:36:29;99673.94;;;16.76;100.00
24390;BME280;12510;56.468;-3.004;2022-10-30T08:38:56;99670.59;;;17.16;100.00
24390;BME280;12510;56.468;-3.004;2022-10-30T08:41:39;99672.03;;;17.25;100.00
24390;BME280;12510;56.468;-3.004;2022-10-30T08:44:06;99674.06;;;17.64;100.00
24390;BME280;12510;56.468;-3.004;2022-10-30T08:46:52;99672.03;;;17.66;100.00
24390;BME280;12510;56.468;-3.004;2022-10-30T08:49:19;99672.84;;;17.59;100.00
24390;BME280;12510;56.468;-3.004;2022-10-30T08:51:52;99682.25;;;17.55;100.00
24390;BME280;12510;56.468;-3.004;2022-10-30T08:54:18;99698.22;;;17.69;100.00
24390;BME280;12510;56.468;-3.004;2022-10-30T08:56:45;99690.03;;;17.70;100.00
24390;BME280;12510;56.468;-3.004;2022-10-30T08:59:12;99697.81;;;17.92;100.00
24390;BME280;12510;56.468;-3.004;2022-10-30T09:01:39;99696.78;;;17.80;100.00
24390;BME280;12510;56.468;-3.004;2022-10-30T09:04:14;99687.78;;;17.81;100.00
24390;BME280;12510;56.468;-3.004;2022-10-30T09:07:00;99682.47;;;17.67;100.00
24390;BME280;12510;56.468;-3.004;2022-10-30T09:09:45;99686.78;;;17.55;100.00
24390;BME280;12510;56.468;-3.004;2022-10-30T09:12:11;99685.09;;;17.81;100.00
24390;BME280;12510;56.468;-3.004;2022-10-30T09:14:42;99689.22;;;17.76;100.00
24390;BME280;12510;56.468;-3.004;2022-10-30T09:17:10;99688.78;;;17.73;100.00
24390;BME280;12510;56.468;-3.004;2022-10-30T09:19:38;99691.66;;;17.71;100.00
24390;BME280;12510;56.468;-3.004;2022-10-30T09:22:05;99672.41;;;17.42;100.00
24390;BME280;12510;56.468;-3.004;2022-10-30T09:24:36;99682.47;;;17.54;100.00
24390;BME280;12510;56.468;-3.004;2022-10-30T09:27:41;99690.88;;;17.57;100.00
24390;BME280;12510;56.468;-3.004;2022-10-30T09:30:10;99686.78;;;17.41;100.00
24390;BME280;12510;56.468;-3.004;2022-10-30T09:32:42;99685.13;;;17.54;100.00
24390;BME280;12510;56.468;-3.004;2022-10-30T09:35:11;99682.03;;;17.57;100.00
24390;BME280;12510;56.468;-3.004;2022-10-30T09:37:39;99678.75;;;17.88;100.00
24390;BME280;12510;56.468;-3.004;2022-10-30T09:40:21;99681.00;;;17.85;100.00
24390;BME280;12510;56.468;-3.004;2022-10-30T09:42:49;99676.50;;;17.92;100.00
24390;BME280;12510;56.468;-3.004;2022-10-30T09:56:40;99667.81;;;18.30;100.00
24390;BME280;12510;56.468;-3.004;2022-10-30T10:02:40;99669.31;;;18.13;100.00
24390;BME280;12510;56.468;-3.004;2022-10-30T10:05:16;99659.22;;;18.21;100.00
24390;BME280;12510;56.468;-3.004;2022-10-30T10:08:17;99674.66;;;18.06;100.00
24390;BME280;12510;56.468;-3.004;2022-10-30T10:11:13;99670.19;;;18.45;100.00
24390;BME280;12510;56.468;-3.004;2022-10-30T10:16:37;99650.50;;;18.53;100.00
24390;BME280;12510;56.468;-3.004;2022-10-30T10:19:15;99652.91;;;18.61;100.00
24390;BME280;12510;56.468;-3.004;2022-10-30T10:21:58;99647.75;;;18.21;100.00
24390;BME280;12510;56.468;-3.004;2022-10-30T10:24:37;99661.31;;;18.13;100.00
24390;BME280;12510;56.468;-3.004;2022-10-30T10:27:12;99657.97;;;18.24;100.00
24390;BME280;12510;56.468;-3.004;2022-10-30T10:30:07;99663.09;;;18.19;100.00
24390;BME280;12510;56.468;-3.004;2022-10-30T10:38:21;99647.72;;;18.28;100.00
24390;BME280;12510;56.468;-3.004;2022-10-30T10:41:17;99640.53;;;18.28;100.00
24390;BME280;12510;56.468;-3.004;2022-10-30T10:46:57;99650.38;;;18.73;100.00
24390;BME280;12510;56.468;-3.004;2022-10-30T10:52:36;99652.88;;;18.68;100.00
24390;BME280;12510;56.468;-3.004;2022-10-30T10:55:17;99647.56;;;18.61;100.00
24390;BME280;12510;56.468;-3.004;2022-10-30T10:57:45;99636.59;;;19.15;100.00
24390;BME280;12510;56.468;-3.004;2022-10-30T11:00:16;99644.13;;;18.86;100.00
24390;BME280;12510;56.468;-3.004;2022-10-30T11:05:41;99640.78;;;19.04;100.00
24390;BME280;12510;56.468;-3.004;2022-10-30T11:08:32;99638.38;;;18.57;100.00
24390;BME280;12510;56.468;-3.004;2022-10-30T11:11:04;99640.88;;;18.90;100.00
24390;BME280;12510;56.468;-3.004;2022-10-30T11:13:40;99631.41;;;18.95;100.00
24390;BME280;12510;56.468;-3.004;2022-10-30T11:16:35;99631.22;;;18.83;100.00
24390;BME280;12510;56.468;-3.004;2022-10-30T11:19:07;99621.13;;;18.98;100.00
24390;BME280;12510;56.468;-3.004;2022-10-30T11:21:40;99623.66;;;18.48;100.00
24390;BME280;12510;56.468;-3.004;2022-10-30T11:24:32;99622.22;;;18.84;100.00
24390;BME280;12510;56.468;-3.004;2022-10-30T11:29:52;99625.91;;;19.15;100.00
24390;BME280;12510;56.468;-3.004;2022-10-30T11:32:21;99629.63;;;19.39;100.00
24390;BME280;12510;56.468;-3.004;2022-10-30T11:37:38;99631.22;;;19.65;100.00
24390;BME280;12510;56.468;-3.004;2022-10-30T11:40:15;99622.56;;;19.45;100.00
24390;BME280;12510;56.468;-3.004;2022-10-30T11:42:46;99623.69;;;20.36;100.00
24390;BME280;12510;56.468;-3.004;2022-10-30T11:45:16;99629.75;;;20.25;100.00
24390;BME280;12510;56.468;-3.004;2022-10-30T11:47:45;99619.94;;;20.68;100.00
24390;BME280;12510;56.468;-3.004;2022-10-30T11:50:26;99615.19;;;19.47;100.00
24390;BME280;12510;56.468;-3.004;2022-10-30T11:52:56;99614.72;;;19.50;100.00
24390;BME280;12510;56.468;-3.004;2022-10-30T11:55:28;99604.81;;;19.75;100.00
24390;BME280;12510;56.468;-3.004;2022-10-30T11:57:58;99609.53;;;19.55;100.00
24390;BME280;12510;56.468;-3.004;2022-10-30T12:00:31;99605.91;;;19.49;100.00
24390;BME280;12510;56.468;-3.004;2022-10-30T12:02:59;99604.13;;;19.62;100.00
24390;BME280;12510;56.468;-3.004;2022-10-30T12:08:15;99592.69;;;19.36;100.00
24390;BME280;12510;56.468;-3.004;2022-10-30T12:10:52;99591.50;;;19.32;100.00
24390;BME280;12510;56.468;-3.004;2022-10-30T12:13:21;99585.25;;;18.94;100.00
24390;BME280;12510;56.468;-3.004;2022-10-30T12:15:50;99575.78;;;19.42;100.00
24390;BME280;12510;56.468;-3.004;2022-10-30T12:18:28;99573.22;;;19.29;100.00
24390;BME280;12510;56.468;-3.004;2022-10-30T12:20:56;99573.41;;;19.52;100.00
24390;BME280;12510;56.468;-3.004;2022-10-30T12:23:25;99569.19;;;19.63;100.00
24390;BME280;12510;56.468;-3.004;2022-10-30T12:25:57;99568.75;;;19.48;100.00
24390;BME280;12510;56.468;-3.004;2022-10-30T12:28:26;99566.38;;;19.76;100.00
24390;BME280;12510;56.468;-3.004;2022-10-30T12:31:02;99566.28;;;19.28;100.00
24390;BME280;12510;56.468;-3.004;2022-10-30T12:36:02;99568.00;;;19.40;100.00
24390;BME280;12510;56.468;-3.004;2022-10-30T12:38:42;99571.91;;;19.82;100.00
24390;BME280;12510;56.468;-3.004;2022-10-30T12:41:33;99563.13;;;19.93;100.00
24390;BME280;12510;56.468;-3.004;2022-10-30T12:44:02;99561.47;;;19.36;100.00
24390;BME280;12510;56.468;-3.004;2022-10-30T12:46:44;99566.44;;;19.51;100.00
24390;BME280;12510;56.468;-3.004;2022-10-30T12:54:45;99561.63;;;19.60;100.00
24390;BME280;12510;56.468;-3.004;2022-10-30T12:57:21;99554.06;;;19.57;100.00
24390;BME280;12510;56.468;-3.004;2022-10-30T13:05:39;99543.66;;;18.80;100.00
24390;BME280;12510;56.468;-3.004;2022-10-30T13:08:27;99548.25;;;18.66;100.00
24390;BME280;12510;56.468;-3.004;2022-10-30T13:11:13;99542.38;;;18.25;100.00
24390;BME280;12510;56.468;-3.004;2022-10-30T13:13:45;99539.63;;;18.38;100.00
24390;BME280;12510;56.468;-3.004;2022-10-30T13:16:17;99539.84;;;18.37;100.00
24390;BME280;12510;56.468;-3.004;2022-10-30T13:18:46;99527.84;;;18.53;100.00
24390;BME280;12510;56.468;-3.004;2022-10-30T13:26:43;99527.19;;;18.89;100.00
24390;BME280;12510;56.468;-3.004;2022-10-30T13:37:21;99515.97;;;19.06;100.00
24390;BME280;12510;56.468;-3.004;2022-10-30T13:40:13;99521.84;;;19.15;100.00
24390;BME280;12510;56.468;-3.004;2022-10-30T13:54:08;99522.16;;;19.43;100.00
24390;BME280;12510;56.468;-3.004;2022-10-30T13:56:37;99513.16;;;19.19;100.00
24390;BME280;12510;56.468;-3.004;2022-10-30T14:12:48;99484.03;;;19.18;100.00
24390;BME280;12510;56.468;-3.004;2022-10-30T14:15:33;99482.16;;;18.74;100.00
24390;BME280;12510;56.468;-3.004;2022-10-30T14:20:45;99470.88;;;18.72;100.00
24390;BME280;12510;56.468;-3.004;2022-10-30T14:25:41;99473.19;;;19.13;100.00
24390;BME280;12510;56.468;-3.004;2022-10-30T14:28:20;99473.50;;;19.04;100.00
24390;BME280;12510;56.468;-3.004;2022-10-30T14:30:47;99465.50;;;19.04;100.00
24390;BME280;12510;56.468;-3.004;2022-10-30T14:33:54;99460.81;;;19.00;100.00
24390;BME280;12510;56.468;-3.004;2022-10-30T14:36:22;99456.59;;;18.35;100.00
24390;BME280;12510;56.468;-3.004;2022-10-30T14:38:54;99460.22;;;18.98;100.00
24390;BME280;12510;56.468;-3.004;2022-10-30T14:44:40;99451.44;;;19.34;100.00
24390;BME280;12510;56.468;-3.004;2022-10-30T14:58:15;99435.56;;;19.21;100.00
24390;BME280;12510;56.468;-3.004;2022-10-30T15:00:42;99436.13;;;19.04;100.00
24390;BME280;12510;56.468;-3.004;2022-10-30T15:05:59;99429.13;;;18.85;100.00
24390;BME280;12510;56.468;-3.004;2022-10-30T15:11:34;99419.53;;;18.58;100.00
24390;BME280;12510;56.468;-3.004;2022-10-30T15:16:49;99427.91;;;18.62;100.00
24390;BME280;12510;56.468;-3.004;2022-10-30T15:19:19;99429.19;;;18.78;100.00
24390;BME280;12510;56.468;-3.004;2022-10-30T15:21:50;99431.31;;;18.95;100.00
24390;BME280;12510;56.468;-3.004;2022-10-30T15:24:20;99423.31;;;18.95;100.00
24390;BME280;12510;56.468;-3.004;2022-10-30T15:26:52;99428.81;;;19.00;100.00
24390;BME280;12510;56.468;-3.004;2022-10-30T15:29:25;99422.34;;;18.89;100.00
24390;BME280;12510;56.468;-3.004;2022-10-30T15:32:00;99435.78;;;19.01;100.00